createdAt,value
2022-10-25T00:02:00.759Z,100.00
2022-10-25T00:04:29.750Z,100.00
2022-10-25T00:06:58.700Z,100.00
2022-10-25T00:09:27.625Z,99.66
2022-10-25T00:11:56.534Z,99.90
2022-10-25T00:14:26.793Z,100.00
2022-10-25T00:16:55.711Z,100.00
2022-10-25T00:19:24.674Z,100.00
2022-10-25T00:21:53.594Z,100.00
2022-10-25T00:24:22.504Z,100.00
2022-10-25T00:26:51.473Z,100.00
2022-10-25T00:29:20.442Z,100.00
2022-10-25T00:31:50.704Z,100.00
2022-10-25T00:34:19.651Z,100.00
2022-10-25T00:36:48.566Z,100.00
2022-10-25T00:39:17.502Z,100.00
2022-10-25T00:41:46.586Z,100.00
2022-10-25T00:44:52.041Z,100.00
2022-10-25T00:47:50.019Z,100.00
2022-10-25T00:50:35.661Z,100.00
2022-10-25T00:53:10.658Z,100.00
2022-10-25T00:55:45.422Z,100.00
2022-10-25T00:58:18.787Z,100.00
2022-10-25T01:00:48.817Z,100.00
2022-10-25T01:03:21.766Z,100.00
2022-10-25T01:05:52.306Z,100.00
2022-10-25T01:08:22.417Z,100.00
2022-10-25T01:10:51.653Z,100.00
2022-10-25T01:13:20.744Z,100.00
2022-10-25T01:15:59.897Z,100.00
2022-10-25T01:18:43.273Z,100.00
2022-10-25T01:21:37.086Z,100.00
2022-10-25T01:24:40.079Z,100.00
2022-10-25T01:30:55.897Z,100.00
2022-10-25T01:33:34.967Z,100.00
2022-10-25T01:36:11.605Z,100.00
2022-10-25T01:38:48.208Z,100.00
2022-10-25T01:41:25.993Z,100.00
2022-10-25T01:44:09.036Z,100.00
2022-10-25T01:46:45.821Z,100.00
2022-10-25T01:49:23.672Z,100.00
2022-10-25T01:51:52.587Z,100.00
2022-10-25T01:54:24.972Z,99.74
2022-10-25T01:57:06.568Z,100.00
2022-10-25T02:00:01.137Z,100.00
2022-10-25T02:02:34.645Z,100.00
2022-10-25T02:05:11.468Z,100.00
2022-10-25T02:07:44.710Z,100.00
2022-10-25T02:10:21.066Z,100.00
2022-10-25T02:12:56.757Z,100.00
2022-10-25T02:15:32.394Z,100.00
2022-10-25T02:18:04.759Z,100.00
2022-10-25T02:20:36.801Z,100.00
2022-10-25T02:23:07.237Z,100.00
2022-10-25T02:25:40.580Z,100.00
2022-10-25T02:28:13.633Z,99.99
2022-10-25T02:30:44.845Z,100.00
2022-10-25T02:33:14.045Z,100.00
2022-10-25T02:35:44.331Z,100.00
2022-10-25T02:38:13.308Z,100.00
2022-10-25T02:40:42.302Z,100.00
2022-10-25T02:43:11.225Z,100.00
2022-10-25T02:45:40.166Z,100.00
2022-10-25T02:48:09.066Z,100.00
2022-10-25T02:50:37.979Z,100.00
2022-10-25T02:53:08.282Z,100.00
2022-10-25T02:55:37.198Z,100.00
2022-10-25T02:58:06.180Z,100.00
2022-10-25T03:00:35.141Z,100.00
2022-10-25T03:03:04.207Z,100.00
2022-10-25T03:05:33.120Z,100.00
2022-10-25T03:08:02.135Z,100.00
2022-10-25T03:10:32.462Z,100.00
2022-10-25T03:13:01.361Z,100.00
2022-10-25T03:15:30.294Z,100.00
2022-10-25T03:17:59.228Z,100.00
2022-10-25T03:20:28.182Z,100.00
2022-10-25T03:22:57.115Z,100.00
2022-10-25T03:25:26.127Z,100.00
2022-10-25T03:27:56.523Z,100.00
2022-10-25T03:30:25.533Z,100.00
2022-10-25T03:32:54.801Z,100.00
2022-10-25T03:35:24.497Z,100.00
2022-10-25T03:37:54.150Z,100.00
2022-10-25T03:40:23.277Z,100.00
2022-10-25T03:42:52.265Z,100.00
2022-10-25T03:45:22.639Z,100.00
2022-10-25T03:47:51.543Z,100.00
2022-10-25T03:50:20.914Z,100.00
2022-10-25T03:52:49.900Z,100.00
2022-10-25T03:55:19.231Z,100.00
2022-10-25T03:57:48.617Z,100.00
2022-10-25T04:00:18.039Z,100.00
2022-10-25T04:02:48.386Z,100.00
2022-10-25T04:05:17.482Z,100.00
2022-10-25T04:07:46.574Z,100.00
2022-10-25T04:10:15.730Z,100.00
2022-10-25T04:12:44.717Z,100.00
2022-10-25T04:15:14.217Z,98.54
2022-10-25T04:17:43.181Z,98.26
2022-10-25T04:20:13.842Z,97.94
2022-10-25T04:22:42.814Z,98.48
2022-10-25T04:25:11.849Z,98.45
2022-10-25T04:27:40.842Z,97.93
2022-10-25T04:30:10.753Z,97.84
2022-10-25T04:32:39.681Z,98.20
2022-10-25T04:35:09.631Z,97.72
2022-10-25T04:37:39.993Z,98.45
2022-10-25T04:40:10.281Z,98.54
2022-10-25T04:42:39.227Z,98.88
2022-10-25T04:45:08.942Z,98.51
2022-10-25T04:47:37.886Z,99.59
2022-10-25T04:50:07.509Z,97.95
2022-10-25T04:52:36.453Z,98.41
2022-10-25T04:55:07.449Z,98.92
2022-10-25T04:57:36.399Z,97.82
2022-10-25T05:00:05.950Z,98.42
2022-10-25T05:02:34.910Z,97.94
2022-10-25T05:05:03.891Z,97.45
2022-10-25T05:07:32.791Z,96.95
2022-10-25T05:10:01.687Z,96.51
2022-10-25T05:12:31.958Z,96.28
2022-10-25T05:15:00.857Z,96.34
2022-10-25T05:17:30.544Z,96.62
2022-10-25T05:19:59.498Z,96.60
2022-10-25T05:22:29.179Z,97.45
2022-10-25T05:24:58.114Z,97.09
2022-10-25T05:27:27.090Z,95.36
2022-10-25T05:29:57.299Z,95.91
2022-10-25T05:32:26.197Z,96.53
2022-10-25T05:34:55.091Z,96.56
2022-10-25T05:37:24.062Z,96.62
2022-10-25T05:39:52.958Z,96.95
2022-10-25T05:42:22.430Z,96.87
2022-10-25T05:44:51.335Z,96.55
2022-10-25T05:47:21.624Z,96.17
2022-10-25T05:49:50.538Z,96.88
2022-10-25T05:52:19.461Z,96.43
2022-10-25T05:54:48.405Z,96.19
2022-10-25T05:57:17.333Z,95.67
2022-10-25T05:59:46.260Z,95.20
2022-10-25T06:02:15.270Z,95.61
2022-10-25T06:04:50.254Z,95.58
2022-10-25T06:07:21.350Z,95.44
2022-10-25T06:09:50.960Z,95.70
2022-10-25T06:12:19.881Z,95.58
2022-10-25T06:14:48.779Z,95.09
2022-10-25T06:17:17.699Z,94.87
2022-10-25T06:19:48.034Z,94.11
2022-10-25T06:22:17.054Z,94.69
2022-10-25T06:24:46.038Z,94.47
2022-10-25T06:27:15.235Z,94.63
2022-10-25T06:29:44.149Z,94.53
2022-10-25T06:32:13.086Z,97.70
2022-10-25T06:34:42.054Z,100.00
2022-10-25T06:37:12.376Z,100.00
2022-10-25T06:39:41.256Z,100.00
2022-10-25T06:42:10.196Z,100.00
2022-10-25T06:44:39.959Z,100.00
2022-10-25T06:47:17.689Z,100.00
2022-10-25T06:49:47.317Z,100.00
2022-10-25T06:52:17.608Z,100.00
2022-10-25T06:54:46.528Z,100.00
2022-10-25T06:57:15.487Z,100.00
2022-10-25T06:59:45.869Z,100.00
2022-10-25T07:02:14.900Z,100.00
2022-10-25T07:04:43.900Z,100.00
2022-10-25T07:07:14.811Z,100.00
2022-10-25T07:09:45.211Z,100.00
2022-10-25T07:12:14.169Z,100.00
2022-10-25T07:14:43.101Z,100.00
2022-10-25T07:17:12.030Z,100.00
2022-10-25T07:19:40.954Z,100.00
2022-10-25T07:22:09.906Z,100.00
2022-10-25T07:24:38.835Z,100.00
2022-10-25T07:27:09.110Z,100.00
2022-10-25T07:29:38.065Z,100.00
2022-10-25T07:32:07.237Z,100.00
2022-10-25T07:34:36.164Z,100.00
2022-10-25T07:37:06.986Z,100.00
2022-10-25T07:39:36.037Z,100.00
2022-10-25T07:42:05.059Z,100.00
2022-10-25T07:44:35.362Z,100.00
2022-10-25T07:47:04.404Z,100.00
2022-10-25T07:49:33.312Z,100.00
2022-10-25T07:52:02.244Z,100.00
2022-10-25T07:54:31.217Z,100.00
2022-10-25T07:57:01.131Z,100.00
2022-10-25T07:59:30.394Z,100.00
2022-10-25T08:02:00.646Z,100.00
2022-10-25T08:04:32.708Z,100.00
2022-10-25T08:07:02.151Z,100.00
2022-10-25T08:09:38.389Z,100.00
2022-10-25T08:12:07.909Z,100.00
2022-10-25T08:14:40.729Z,99.18
2022-10-25T08:17:12.659Z,99.26
2022-10-25T08:19:41.644Z,99.21
2022-10-25T08:22:10.631Z,98.32
2022-10-25T08:24:40.101Z,97.47
2022-10-25T08:27:09.057Z,96.36
2022-10-25T08:29:38.079Z,97.26
2022-10-25T08:32:07.042Z,95.74
2022-10-25T08:34:37.354Z,96.61
2022-10-25T08:37:06.274Z,95.69
2022-10-25T08:39:35.311Z,95.81
2022-10-25T08:42:04.806Z,95.00
2022-10-25T08:44:45.160Z,94.84
2022-10-25T08:47:19.460Z,93.48
2022-10-25T08:49:56.774Z,94.20
2022-10-25T08:52:31.913Z,93.97
2022-10-25T08:55:05.688Z,93.78
2022-10-25T08:57:39.136Z,92.57
2022-10-25T09:00:17.260Z,91.83
2022-10-25T09:02:51.862Z,90.31
2022-10-25T09:05:35.601Z,92.01
2022-10-25T09:08:20.623Z,92.13
2022-10-25T09:11:00.623Z,91.81
2022-10-25T09:13:38.867Z,89.63
2022-10-25T09:16:16.130Z,90.37
2022-10-25T09:18:49.299Z,89.44
2022-10-25T09:21:23.179Z,90.30
2022-10-25T09:24:00.422Z,87.68
2022-10-25T09:26:42.142Z,88.68
2022-10-25T09:29:24.400Z,87.81
2022-10-25T09:31:57.901Z,86.63
2022-10-25T09:34:32.870Z,88.15
2022-10-25T09:37:13.118Z,87.25
2022-10-25T09:39:45.589Z,87.01
2022-10-25T09:42:22.753Z,87.27
2022-10-25T09:44:55.656Z,87.22
2022-10-25T09:47:36.899Z,88.73
2022-10-25T09:50:12.859Z,87.77
2022-10-25T09:52:49.537Z,86.97
2022-10-25T09:55:34.479Z,86.52
2022-10-25T09:58:03.807Z,87.38
2022-10-25T10:00:34.401Z,86.86
2022-10-25T10:03:03.417Z,88.23
2022-10-25T10:05:33.197Z,87.64
2022-10-25T10:08:03.474Z,87.38
2022-10-25T10:10:36.313Z,87.97
2022-10-25T10:13:13.687Z,87.17
2022-10-25T10:15:51.143Z,87.41
2022-10-25T10:18:37.776Z,87.33
2022-10-25T10:21:13.266Z,86.56
2022-10-25T10:23:52.972Z,86.61
2022-10-25T10:26:29.234Z,85.23
2022-10-25T10:29:08.890Z,84.15
2022-10-25T10:31:39.878Z,83.08
2022-10-25T10:34:25.316Z,83.93
2022-10-25T10:37:05.740Z,83.33
2022-10-25T10:39:36.357Z,82.89
2022-10-25T10:42:17.413Z,83.28
2022-10-25T10:45:05.155Z,83.62
2022-10-25T10:47:36.996Z,82.74
2022-10-25T10:50:14.009Z,81.86
2022-10-25T10:52:45.879Z,83.10
2022-10-25T10:55:22.566Z,82.80
2022-10-25T10:57:55.090Z,83.72
2022-10-25T11:00:27.081Z,83.83
2022-10-25T11:05:32.205Z,81.00
2022-10-25T11:08:03.733Z,80.86
2022-10-25T11:10:35.832Z,81.39
2022-10-25T11:13:16.398Z,78.65
2022-10-25T11:16:21.953Z,79.39
2022-10-25T11:19:07.579Z,78.27
2022-10-25T11:22:12.746Z,79.23
2022-10-25T11:24:55.400Z,78.92
2022-10-25T11:27:39.047Z,78.74
2022-10-25T11:30:14.066Z,74.14
2022-10-25T11:33:25.158Z,75.86
2022-10-25T11:36:14.261Z,75.11
2022-10-25T11:38:58.469Z,73.70
2022-10-25T11:41:46.720Z,75.70
2022-10-25T11:44:31.695Z,75.20
2022-10-25T11:47:11.831Z,77.91
2022-10-25T11:49:58.546Z,76.64
2022-10-25T11:52:56.139Z,76.73
2022-10-25T11:55:36.871Z,77.26
2022-10-25T11:58:19.693Z,76.21
2022-10-25T12:00:58.015Z,72.50
2022-10-25T12:03:44.810Z,71.52
2022-10-25T12:06:23.812Z,74.95
2022-10-25T12:09:07.543Z,72.76
2022-10-25T12:11:43.463Z,72.44
2022-10-25T12:14:16.892Z,73.97
2022-10-25T12:16:51.924Z,73.98
2022-10-25T12:19:27.366Z,74.19
2022-10-25T12:22:02.274Z,71.07
2022-10-25T12:24:40.448Z,70.48
2022-10-25T12:27:11.960Z,73.02
2022-10-25T12:29:45.460Z,72.90
2022-10-25T12:32:21.516Z,73.30
2022-10-25T12:34:55.023Z,72.47
2022-10-25T12:37:36.966Z,72.95
2022-10-25T12:40:07.861Z,72.00
2022-10-25T12:42:46.295Z,72.29
2022-10-25T12:45:48.854Z,72.80
2022-10-25T12:48:45.486Z,73.99
2022-10-25T12:51:33.046Z,71.18
2022-10-25T12:54:31.617Z,70.41
2022-10-25T12:57:14.963Z,69.64
2022-10-25T13:00:03.834Z,69.06
2022-10-25T13:03:11.937Z,68.31
2022-10-25T13:06:19.428Z,67.57
2022-10-25T13:08:48.910Z,65.66
2022-10-25T13:11:18.157Z,65.55
2022-10-25T13:13:52.533Z,66.66
2022-10-25T13:16:27.695Z,65.98
2022-10-25T13:19:53.684Z,68.55
2022-10-25T13:22:40.898Z,67.65
2022-10-25T13:25:39.017Z,70.97
2022-10-25T13:28:32.773Z,66.05
2022-10-25T13:31:48.306Z,66.28
2022-10-25T13:34:37.210Z,66.36
2022-10-25T13:37:30.406Z,67.91
2022-10-25T13:40:03.923Z,67.17
2022-10-25T13:42:35.437Z,70.08
2022-10-25T13:45:09.617Z,70.13
2022-10-25T13:47:40.927Z,70.64
2022-10-25T13:53:02.379Z,70.49
2022-10-25T13:55:37.326Z,71.45
2022-10-25T13:58:39.664Z,69.19
2022-10-25T14:01:55.579Z,69.28
2022-10-25T14:04:41.061Z,71.08
2022-10-25T14:07:48.532Z,69.52
2022-10-25T14:10:34.009Z,68.96
2022-10-25T14:13:16.876Z,69.58
2022-10-25T14:15:53.405Z,71.45
2022-10-25T14:18:24.668Z,70.96
2022-10-25T14:20:56.844Z,70.96
2022-10-25T14:23:29.826Z,71.73
2022-10-25T14:26:00.740Z,71.72
2022-10-25T14:28:33.481Z,72.85
2022-10-25T14:31:04.145Z,72.23
2022-10-25T14:33:37.948Z,72.44
2022-10-25T14:36:11.785Z,71.86
2022-10-25T14:38:52.904Z,72.21
2022-10-25T14:41:24.185Z,72.24
2022-10-25T14:43:55.353Z,72.78
2022-10-25T14:46:26.047Z,73.25
2022-10-25T14:48:57.356Z,73.83
2022-10-25T14:51:29.295Z,73.20
2022-10-25T14:54:02.172Z,74.65
2022-10-25T14:56:33.949Z,74.53
2022-10-25T14:59:06.597Z,75.00
2022-10-25T15:01:36.290Z,75.64
2022-10-25T15:04:05.544Z,76.17
2022-10-25T15:06:34.549Z,75.90
2022-10-25T15:12:16.339Z,75.84
2022-10-25T15:14:48.166Z,76.86
2022-10-25T15:17:24.289Z,76.46
2022-10-25T15:20:06.216Z,76.71
2022-10-25T15:22:43.873Z,77.62
2022-10-25T15:25:28.693Z,78.47
2022-10-25T15:27:58.946Z,78.70
2022-10-25T15:30:37.029Z,79.26
2022-10-25T15:33:11.148Z,78.47
2022-10-25T15:35:48.283Z,78.80
2022-10-25T15:38:18.269Z,78.47
2022-10-25T15:40:47.889Z,79.63
2022-10-25T15:43:17.025Z,79.88
2022-10-25T15:45:47.405Z,80.59
2022-10-25T15:48:18.007Z,81.63
2022-10-25T15:50:49.920Z,82.81
2022-10-25T15:53:19.522Z,83.60
2022-10-25T15:55:50.147Z,83.65
2022-10-25T15:58:19.539Z,84.69
2022-10-25T16:00:52.042Z,84.78
2022-10-25T16:03:24.946Z,84.57
2022-10-25T16:05:54.257Z,85.41
2022-10-25T16:08:23.256Z,85.17
2022-10-25T16:10:52.729Z,85.68
2022-10-25T16:13:28.211Z,86.07
2022-10-25T16:15:59.040Z,86.15
2022-10-25T16:18:29.518Z,86.63
2022-10-25T16:20:59.178Z,86.91
2022-10-25T16:23:28.262Z,87.80
2022-10-25T16:25:57.517Z,88.01
2022-10-25T16:31:01.611Z,88.99
2022-10-25T16:33:30.569Z,88.96
2022-10-25T16:35:59.455Z,88.59
2022-10-25T16:38:28.344Z,88.97
2022-10-25T16:40:58.089Z,88.75
2022-10-25T16:43:27.026Z,89.09
2022-10-25T16:45:56.009Z,89.25
2022-10-25T16:48:26.417Z,89.12
2022-10-25T16:50:55.341Z,90.04
2022-10-25T16:53:24.555Z,89.14
2022-10-25T16:55:53.457Z,89.02
2022-10-25T16:58:22.363Z,89.92
2022-10-25T17:00:51.319Z,89.22
2022-10-25T17:03:20.234Z,89.04
2022-10-25T17:05:52.315Z,87.57
2022-10-25T17:08:21.312Z,87.57
2022-10-25T17:10:50.267Z,86.93
2022-10-25T17:13:20.099Z,86.71
2022-10-25T17:15:49.080Z,87.29
2022-10-25T17:18:20.856Z,86.29
2022-10-25T17:20:51.203Z,87.46
2022-10-25T17:23:20.185Z,87.53
2022-10-25T17:25:58.277Z,87.09
2022-10-25T17:28:27.360Z,87.42
2022-10-25T17:30:56.414Z,86.56
2022-10-25T17:33:26.048Z,86.80
2022-10-25T17:35:57.049Z,86.55
2022-10-25T17:38:26.090Z,87.08
2022-10-25T17:40:54.989Z,86.60
2022-10-25T17:43:23.876Z,86.76
2022-10-25T17:45:52.826Z,86.61
2022-10-25T17:48:21.734Z,85.99
2022-10-25T17:50:50.667Z,86.07
2022-10-25T17:53:20.893Z,86.45
2022-10-25T17:55:49.796Z,86.11
2022-10-25T17:58:18.743Z,86.07
2022-10-25T18:00:47.641Z,86.30
2022-10-25T18:03:16.570Z,85.22
2022-10-25T18:05:45.513Z,85.86
2022-10-25T18:08:14.458Z,86.61
2022-10-25T18:10:44.764Z,87.41
2022-10-25T18:13:13.690Z,88.82
2022-10-25T18:15:42.809Z,89.23
2022-10-25T18:18:11.721Z,90.13
2022-10-25T18:20:41.423Z,91.41
2022-10-25T18:23:13.373Z,92.49
2022-10-25T18:25:52.821Z,93.58
2022-10-25T18:28:21.826Z,94.95
2022-10-25T18:30:50.772Z,96.60
2022-10-25T18:33:23.709Z,97.85
2022-10-25T18:35:59.259Z,98.66
2022-10-25T18:38:28.495Z,100.00
2022-10-25T18:40:58.795Z,100.00
2022-10-25T18:43:28.062Z,100.00
2022-10-25T18:46:00.901Z,100.00
2022-10-25T18:48:30.079Z,100.00
2022-10-25T18:51:05.185Z,100.00
2022-10-25T18:53:35.338Z,100.00
2022-10-25T18:56:08.631Z,100.00
2022-10-25T18:58:37.520Z,100.00
2022-10-25T19:01:11.317Z,100.00
2022-10-25T19:03:41.287Z,100.00
2022-10-25T19:06:10.733Z,100.00
2022-10-25T19:08:39.754Z,100.00
2022-10-25T19:11:12.017Z,100.00
2022-10-25T19:13:42.402Z,100.00
2022-10-25T19:16:13.723Z,100.00
2022-10-25T19:18:42.621Z,100.00
2022-10-25T19:21:14.207Z,100.00
2022-10-25T19:23:45.367Z,100.00
2022-10-25T19:26:18.095Z,100.00
2022-10-25T19:28:47.432Z,100.00
2022-10-25T19:31:17.832Z,100.00
2022-10-25T19:33:47.616Z,100.00
2022-10-25T19:36:17.897Z,100.00
2022-10-25T19:38:48.253Z,100.00
2022-10-25T19:41:20.853Z,100.00
2022-10-25T19:43:49.809Z,100.00
2022-10-25T19:46:19.387Z,100.00
2022-10-25T19:48:48.401Z,100.00
2022-10-25T19:51:19.366Z,100.00
2022-10-25T19:53:49.412Z,100.00
2022-10-25T19:56:22.054Z,100.00
2022-10-25T19:58:51.540Z,100.00
2022-10-25T20:01:23.057Z,100.00
2022-10-25T20:03:54.500Z,100.00
2022-10-25T20:06:26.549Z,100.00
2022-10-25T20:08:57.087Z,100.00
2022-10-25T20:11:28.165Z,100.00
2022-10-25T20:13:59.196Z,100.00
2022-10-25T20:16:29.406Z,100.00
2022-10-25T20:18:59.752Z,100.00
2022-10-25T20:21:33.102Z,100.00
2022-10-25T20:24:03.411Z,100.00
2022-10-25T20:26:35.376Z,100.00
2022-10-25T20:29:06.887Z,100.00
2022-10-25T20:31:36.567Z,100.00
2022-10-25T20:34:05.555Z,100.00
2022-10-25T20:36:34.502Z,100.00
2022-10-25T20:39:03.537Z,100.00
2022-10-25T20:41:36.294Z,100.00
2022-10-25T20:44:05.813Z,100.00
2022-10-25T20:46:35.907Z,100.00
2022-10-25T20:49:07.262Z,100.00
2022-10-25T20:51:37.867Z,100.00
2022-10-25T20:54:09.652Z,100.00
2022-10-25T20:56:40.249Z,100.00
2022-10-25T20:59:09.540Z,100.00
2022-10-25T21:01:38.748Z,100.00
2022-10-25T21:04:09.571Z,100.00
2022-10-25T21:06:38.511Z,100.00
2022-10-25T21:09:07.438Z,100.00
2022-10-25T21:11:36.353Z,100.00
2022-10-25T21:14:06.578Z,100.00
2022-10-25T21:16:35.593Z,100.00
2022-10-25T21:19:05.059Z,100.00
2022-10-25T21:21:34.029Z,100.00
2022-10-25T21:24:05.458Z,100.00
2022-10-25T21:26:34.385Z,100.00
2022-10-25T21:29:03.555Z,100.00
2022-10-25T21:31:33.821Z,100.00
2022-10-25T21:34:04.504Z,100.00
2022-10-25T21:36:33.531Z,100.00
2022-10-25T21:39:02.432Z,100.00
2022-10-25T21:41:31.348Z,100.00
2022-10-25T21:44:00.415Z,100.00
2022-10-25T21:46:29.746Z,100.00
2022-10-25T21:49:00.025Z,100.00
2022-10-25T21:51:28.948Z,100.00
2022-10-25T21:54:01.138Z,100.00
2022-10-25T21:56:31.438Z,100.00
2022-10-25T21:59:01.713Z,100.00
2022-10-25T22:01:33.125Z,100.00
2022-10-25T22:04:03.436Z,100.00
2022-10-25T22:06:32.362Z,100.00
2022-10-25T22:09:01.295Z,100.00
2022-10-25T22:11:32.798Z,100.00
2022-10-25T22:14:03.533Z,100.00
2022-10-25T22:16:33.807Z,100.00
2022-10-25T22:19:05.945Z,100.00
2022-10-25T22:21:37.420Z,100.00
2022-10-25T22:24:08.342Z,100.00
2022-10-25T22:26:38.047Z,100.00
2022-10-25T22:29:07.417Z,100.00
2022-10-25T22:31:36.332Z,100.00
2022-10-25T22:34:08.487Z,100.00
2022-10-25T22:36:39.316Z,100.00
2022-10-25T22:39:09.540Z,100.00
2022-10-25T22:41:38.668Z,100.00
2022-10-25T22:44:07.595Z,100.00
2022-10-25T22:46:37.240Z,100.00
2022-10-25T22:49:09.522Z,100.00
2022-10-25T22:51:39.340Z,100.00
2022-10-25T22:54:08.597Z,100.00
2022-10-25T22:56:37.932Z,100.00
2022-10-25T22:59:07.657Z,100.00
2022-10-25T23:01:38.250Z,100.00
2022-10-25T23:04:10.281Z,100.00
2022-10-25T23:06:40.625Z,100.00
2022-10-25T23:09:11.675Z,100.00
2022-10-25T23:11:41.732Z,100.00
2022-10-25T23:14:14.922Z,100.00
2022-10-25T23:16:46.706Z,100.00
2022-10-25T23:19:16.951Z,100.00
2022-10-25T23:21:45.856Z,100.00
2022-10-25T23:24:14.795Z,100.00
2022-10-25T23:26:43.776Z,100.00
2022-10-25T23:29:14.042Z,100.00
2022-10-25T23:31:42.939Z,100.00
2022-10-25T23:34:12.553Z,100.00
2022-10-25T23:36:43.376Z,100.00
2022-10-25T23:39:12.362Z,100.00
2022-10-25T23:41:41.325Z,100.00
2022-10-25T23:44:10.222Z,100.00
2022-10-25T23:46:39.129Z,100.00
2022-10-25T23:49:08.041Z,100.00
2022-10-25T23:51:36.941Z,100.00
2022-10-25T23:54:09.526Z,100.00
2022-10-25T23:56:38.637Z,100.00
2022-10-25T23:59:07.695Z,100.00
